Time;durP1;ratioP1;P1;durP2;ratioP2;P2;SDS_P1;SDS_P2;PMS_P1;PMS_P2;Temp;Humidity;BMP_temperature;BMP_pressure;BME280_temperature;BME280_humidity;BME280_pressure;Samples;Min_cycle;Max_cycle;Signal;HPM_P1;HPM_P2
2023/01/18 00:00:14;;;;;;;0.10;0.10;;;1.30;99.90;;;;;;5011260;28;20187;-67
2023/01/18 00:02:40;;;;;;;0.00;0.00;;;1.20;99.90;;;;;;5011379;28;20190;-67
2023/01/18 00:05:06;;;;;;;0.00;0.00;;;1.20;99.90;;;;;;5010895;28;20696;-67
2023/01/18 00:07:31;;;;;;;0.20;0.20;;;1.20;99.90;;;;;;5011320;28;20178;-67
2023/01/18 00:09:57;;;;;;;0.00;0.00;;;1.20;99.90;;;;;;5011363;28;20183;-67
2023/01/18 00:12:23;;;;;;;0.00;0.00;;;1.20;99.90;;;;;;5009404;28;20191;-69
2023/01/18 00:14:48;;;;;;;0.00;0.00;;;1.20;99.90;;;;;;4974580;28;20179;-67
2023/01/18 00:17:14;;;;;;;0.00;0.00;;;1.20;99.90;;;;;;4999221;28;20187;-67
2023/01/18 00:19:39;;;;;;;0.00;0.00;;;1.20;99.90;;;;;;5011517;28;20253;-67
2023/01/18 00:22:05;;;;;;;0.00;0.00;;;1.20;99.90;;;;;;5011186;28;20187;-68
2023/01/18 00:24:30;;;;;;;0.00;0.00;;;1.20;99.90;;;;;;4993222;28;20186;-67
2023/01/18 00:26:56;;;;;;;0.10;0.10;;;1.20;99.90;;;;;;5011358;28;20179;-67
2023/01/18 00:29:21;;;;;;;0.00;0.00;;;1.20;99.90;;;;;;5011263;28;20197;-67
2023/01/18 00:31:47;;;;;;;0.00;0.00;;;1.30;99.90;;;;;;5011039;28;20284;-67
2023/01/18 00:34:13;;;;;;;0.00;0.00;;;1.30;99.90;;;;;;5012051;28;20684;-67
2023/01/18 00:36:39;;;;;;;0.95;0.52;;;1.20;99.90;;;;;;5013000;28;20187;-67
2023/01/18 00:39:05;;;;;;;0.00;0.00;;;1.30;99.90;;;;;;5015029;28;20664;-67
2023/01/18 00:41:30;;;;;;;0.52;0.52;;;1.30;99.90;;;;;;5014589;28;20190;-67
2023/01/18 00:43:56;;;;;;;0.00;0.00;;;1.30;99.90;;;;;;5014876;28;20580;-67
2023/01/18 00:46:24;;;;;;;0.15;0.15;;;1.30;99.90;;;;;;5014551;28;20253;-67
2023/01/18 00:48:51;;;;;;;0.00;0.00;;;1.40;99.90;;;;;;5014034;28;20206;-67
2023/01/18 00:51:22;;;;;;;0.10;0.10;;;1.40;99.90;;;;;;5014670;28;20214;-67
2023/01/18 00:53:48;;;;;;;0.00;0.00;;;1.40;99.90;;;;;;5014389;28;20261;-67
2023/01/18 00:56:17;;;;;;;0.00;0.00;;;1.40;99.90;;;;;;5014629;28;20190;-67
2023/01/18 00:58:43;;;;;;;0.00;0.00;;;1.40;99.90;;;;;;5014398;28;20821;-67
2023/01/18 01:01:10;;;;;;;0.00;0.00;;;1.40;99.90;;;;;;5014448;28;20646;-68
2023/01/18 01:06:44;;;;;;;0.00;0.00;;;1.40;99.90;;;;;;5014562;28;20241;-67
2023/01/18 01:09:24;;;;;;;0.10;0.10;;;1.40;99.90;;;;;;5014266;28;20194;-67
2023/01/18 01:28:20;;;;;;;0.00;0.00;;;1.50;99.90;;;;;;5014246;28;20264;-67
2023/01/18 01:30:46;;;;;;;0.00;0.00;;;1.50;99.90;;;;;;5013602;28;20218;-67
2023/01/18 01:33:12;;;;;;;0.00;0.00;;;1.50;99.90;;;;;;5013518;28;20191;-67
2023/01/18 01:35:37;;;;;;;0.00;0.00;;;1.50;99.90;;;;;;5013958;28;20186;-67
2023/01/18 01:38:03;;;;;;;0.22;0.20;;;1.50;99.90;;;;;;5014024;28;20218;-67
2023/01/18 01:40:29;;;;;;;0.00;0.00;;;1.50;99.90;;;;;;4995766;28;20206;-67
2023/01/18 01:42:55;;;;;;;0.10;0.10;;;1.50;99.90;;;;;;5013217;28;20225;-67
2023/01/18 01:45:26;;;;;;;0.32;0.10;;;1.40;99.90;;;;;;5013279;28;20182;-68
2023/01/18 01:47:54;;;;;;;0.00;0.00;;;1.50;99.90;;;;;;5013148;28;20193;-67
2023/01/18 01:50:32;;;;;;;0.00;0.00;;;1.40;99.90;;;;;;5013452;28;20324;-67
2023/01/18 01:52:58;;;;;;;0.00;0.00;;;1.50;99.90;;;;;;5013200;28;20191;-68
2023/01/18 01:55:30;;;;;;;0.00;0.00;;;1.50;99.90;;;;;;5013543;28;20310;-67
2023/01/18 01:58:01;;;;;;;0.00;0.00;;;1.50;99.90;;;;;;5013463;28;20182;-67
2023/01/18 02:00:26;;;;;;;0.00;0.00;;;1.50;99.90;;;;;;4995527;28;20282;-67
2023/01/18 02:02:58;;;;;;;0.10;0.10;;;1.60;99.90;;;;;;5012926;28;20257;-67
2023/01/18 02:05:25;;;;;;;0.00;0.00;;;1.60;99.90;;;;;;5013310;28;20608;-67
2023/01/18 02:07:52;;;;;;;0.00;0.00;;;1.60;99.90;;;;;;5013274;28;20179;-67
2023/01/18 02:10:17;;;;;;;0.00;0.00;;;1.60;99.90;;;;;;5012982;28;20178;-67
2023/01/18 02:12:46;;;;;;;0.00;0.00;;;1.60;99.90;;;;;;5012626;28;20190;-67
2023/01/18 02:15:11;;;;;;;0.00;0.00;;;1.60;99.90;;;;;;5011785;28;20273;-67
2023/01/18 02:18:12;;;;;;;0.00;0.00;;;1.60;99.90;;;;;;5012161;28;20270;-67
2023/01/18 02:20:38;;;;;;;0.00;0.00;;;1.60;99.90;;;;;;5007245;28;20266;-67
2023/01/18 02:23:22;;;;;;;0.00;0.00;;;1.60;99.90;;;;;;5012853;28;20706;-67
2023/01/18 02:26:08;;;;;;;0.00;0.00;;;1.60;99.90;;;;;;4995443;28;20267;-67
2023/01/18 02:28:39;;;;;;;0.35;0.35;;;1.60;99.90;;;;;;5000776;28;20189;-67
2023/01/18 02:31:20;;;;;;;0.00;0.00;;;1.70;99.90;;;;;;5013203;28;20909;-67
2023/01/18 02:33:58;;;;;;;0.00;0.00;;;1.70;99.90;;;;;;5013094;28;20182;-67
2023/01/18 02:36:42;;;;;;;1.08;0.55;;;1.70;99.90;;;;;;5013117;28;20183;-67
2023/01/18 02:39:22;;;;;;;0.00;0.00;;;1.70;99.90;;;;;;5012901;28;20201;-67
2023/01/18 02:47:29;;;;;;;0.20;0.20;;;1.70;99.90;;;;;;5012502;28;20265;-67
2023/01/18 02:49:56;;;;;;;0.00;0.00;;;1.70;99.90;;;;;;5012719;28;20711;-67
2023/01/18 02:52:39;;;;;;;0.00;0.00;;;1.70;99.90;;;;;;5012687;28;20700;-67
2023/01/18 02:55:10;;;;;;;0.10;0.10;;;1.70;99.90;;;;;;4995647;28;20649;-67
2023/01/18 02:57:36;;;;;;;0.00;0.00;;;1.70;99.90;;;;;;5012456;28;20234;-67
2023/01/18 03:00:04;;;;;;;0.00;0.00;;;1.70;99.90;;;;;;5012774;28;20241;-67
2023/01/18 03:02:29;;;;;;;0.17;0.17;;;1.70;99.90;;;;;;5012380;28;20206;-67
2023/01/18 03:04:55;;;;;;;0.00;0.00;;;1.70;99.90;;;;;;5012495;28;20203;-67
2023/01/18 03:07:31;;;;;;;0.00;0.00;;;1.70;99.90;;;;;;5012661;28;20185;-67
2023/01/18 03:09:59;;;;;;;0.00;0.00;;;1.70;99.90;;;;;;5012477;28;20174;-67
2023/01/18 03:12:58;;;;;;;0.00;0.00;;;1.70;99.90;;;;;;5012346;28;20233;-67
2023/01/18 03:15:44;;;;;;;0.20;0.20;;;1.80;99.90;;;;;;5012411;28;20175;-67
2023/01/18 03:18:17;;;;;;;0.30;0.10;;;1.70;99.90;;;;;;4992682;28;20658;-67
2023/01/18 03:20:49;;;;;;;0.00;0.00;;;1.70;99.90;;;;;;4992739;28;20163;-67
2023/01/18 03:23:39;;;;;;;0.00;0.00;;;1.70;99.90;;;;;;4992775;28;20762;-67
2023/01/18 03:26:18;;;;;;;0.00;0.00;;;1.70;99.90;;;;;;5003006;28;20182;-68
2023/01/18 03:35:07;;;;;;;0.00;0.00;;;1.60;99.90;;;;;;4992655;28;20199;-67
2023/01/18 03:37:40;;;;;;;0.00;0.00;;;1.60;99.90;;;;;;5008244;28;20210;-68
2023/01/18 03:40:20;;;;;;;0.10;0.10;;;1.60;99.90;;;;;;5012069;28;20244;-67
2023/01/18 03:43:06;;;;;;;0.00;0.00;;;1.60;99.90;;;;;;5012162;28;20171;-67
2023/01/18 03:45:37;;;;;;;0.00;0.00;;;1.50;99.90;;;;;;4992216;28;20172;-68
2023/01/18 03:48:05;;;;;;;0.00;0.00;;;1.60;99.90;;;;;;5001382;28;20246;-68
2023/01/18 03:50:52;;;;;;;0.00;0.00;;;1.60;99.90;;;;;;5011644;28;20199;-68
2023/01/18 03:53:41;;;;;;;0.00;0.00;;;1.60;99.90;;;;;;5006732;28;20194;-67
2023/01/18 03:56:18;;;;;;;0.00;0.00;;;1.60;99.90;;;;;;4996396;28;20199;-68
2023/01/18 03:58:44;;;;;;;0.00;0.00;;;1.50;99.90;;;;;;4997667;28;20277;-68
2023/01/18 04:01:10;;;;;;;0.00;0.00;;;1.50;99.90;;;;;;5011828;28;20175;-68
2023/01/18 04:03:36;;;;;;;0.00;0.00;;;1.50;99.90;;;;;;5011871;28;20178;-68
2023/01/18 04:06:04;;;;;;;0.00;0.00;;;1.50;99.90;;;;;;5011899;28;20166;-68
2023/01/18 04:08:30;;;;;;;0.00;0.00;;;1.50;99.90;;;;;;5011492;28;20572;-68
2023/01/18 04:10:55;;;;;;;0.00;0.00;;;1.50;99.90;;;;;;5015304;28;20205;-68
2023/01/18 04:13:21;;;;;;;0.00;0.00;;;1.50;99.90;;;;;;5015515;28;20301;-68
2023/01/18 04:15:46;;;;;;;0.00;0.00;;;1.50;99.90;;;;;;5015592;28;20178;-68
2023/01/18 04:18:12;;;;;;;0.00;0.00;;;1.50;99.90;;;;;;5015553;28;20185;-69
2023/01/18 04:20:37;;;;;;;0.00;0.00;;;1.50;99.90;;;;;;5015513;28;20183;-71
2023/01/18 04:23:03;;;;;;;0.00;0.00;;;1.60;99.90;;;;;;5014366;28;20663;-69
2023/01/18 04:25:28;;;;;;;0.00;0.00;;;1.60;99.90;;;;;;5001814;28;20178;-70
2023/01/18 04:27:54;;;;;;;0.10;0.10;;;1.60;99.90;;;;;;5015075;28;20178;-70
2023/01/18 04:30:20;;;;;;;0.00;0.00;;;1.60;99.90;;;;;;5014414;28;20182;-69
2023/01/18 04:32:45;;;;;;;0.00;0.00;;;1.60;99.90;;;;;;5013938;28;20642;-70
2023/01/18 04:35:12;;;;;;;0.00;0.00;;;1.60;99.90;;;;;;5006318;28;20624;-71
2023/01/18 04:37:37;;;;;;;0.00;0.00;;;1.50;99.90;;;;;;5015043;28;20191;-69
2023/01/18 04:40:05;;;;;;;0.00;0.00;;;1.50;99.90;;;;;;5010714;28;20183;-71
2023/01/18 04:42:30;;;;;;;0.00;0.00;;;1.50;99.90;;;;;;4999099;28;20171;-71
2023/01/18 04:44:56;;;;;;;0.00;0.00;;;1.40;99.90;;;;;;5012831;28;20202;-72
2023/01/18 04:47:21;;;;;;;0.10;0.10;;;1.40;99.90;;;;;;5012592;28;20201;-71
2023/01/18 04:49:47;;;;;;;0.00;0.00;;;1.40;99.90;;;;;;5013885;28;20262;-71
2023/01/18 04:52:13;;;;;;;0.00;0.00;;;1.40;99.90;;;;;;5014544;28;20241;-69
2023/01/18 04:54:38;;;;;;;0.00;0.00;;;1.40;99.90;;;;;;5014225;28;20578;-69
2023/01/18 04:57:04;;;;;;;0.00;0.00;;;1.40;99.90;;;;;;5014619;28;20209;-67
2023/01/18 04:59:29;;;;;;;0.00;0.00;;;1.40;99.90;;;;;;5014048;28;20241;-62
2023/01/18 05:01:55;;;;;;;0.00;0.00;;;1.40;99.90;;;;;;5013728;28;20210;-62
2023/01/18 05:04:20;;;;;;;0.00;0.00;;;1.40;99.90;;;;;;5014379;28;20182;-65
2023/01/18 05:06:49;;;;;;;0.00;0.00;;;1.40;99.90;;;;;;5013961;28;20193;-62
2023/01/18 05:09:15;;;;;;;0.20;0.20;;;1.40;99.90;;;;;;5014060;28;20199;-63
2023/01/18 05:11:41;;;;;;;0.00;0.00;;;1.40;99.90;;;;;;5013695;28;20221;-66
2023/01/18 05:14:07;;;;;;;0.00;0.00;;;1.40;99.90;;;;;;5013927;28;20195;-63
2023/01/18 05:16:33;;;;;;;0.00;0.00;;;1.40;99.90;;;;;;5014493;28;20174;-65
2023/01/18 05:18:58;;;;;;;0.50;0.50;;;1.60;99.90;;;;;;5014189;28;20669;-66
2023/01/18 05:21:24;;;;;;;0.00;0.00;;;2.30;99.90;;;;;;4997065;28;20238;-67
2023/01/18 05:23:49;;;;;;;0.10;0.10;;;2.40;99.90;;;;;;4998794;28;20210;-66
2023/01/18 05:26:20;;;;;;;0.00;0.00;;;2.30;99.90;;;;;;5014545;28;20178;-67
2023/01/18 05:28:46;;;;;;;0.00;0.00;;;2.10;99.90;;;;;;5014434;28;20179;-66
2023/01/18 05:31:15;;;;;;;0.00;0.00;;;2.00;99.90;;;;;;5021701;28;20549;-65
2023/01/18 05:33:41;;;;;;;0.00;0.00;;;1.90;99.90;;;;;;5033973;28;20182;-62
2023/01/18 05:36:07;;;;;;;0.20;0.20;;;1.80;99.90;;;;;;5029110;28;20270;-66
2023/01/18 05:38:33;;;;;;;0.00;0.00;;;1.70;99.90;;;;;;5014057;28;20179;-66
2023/01/18 05:40:58;;;;;;;0.00;0.00;;;1.60;99.90;;;;;;5014236;28;20221;-66
2023/01/18 05:43:26;;;;;;;0.00;0.00;;;1.60;99.90;;;;;;5013790;28;20186;-69
2023/01/18 05:45:53;;;;;;;0.05;0.05;;;1.60;99.90;;;;;;5013785;28;20181;-69
2023/01/18 05:48:19;;;;;;;0.00;0.00;;;1.50;99.90;;;;;;5013057;28;20666;-68
2023/01/18 05:50:46;;;;;;;0.10;0.10;;;1.50;99.90;;;;;;5013741;28;20290;-70
2023/01/18 05:53:14;;;;;;;0.35;0.35;;;1.40;99.90;;;;;;5013769;28;20182;-70
2023/01/18 05:55:40;;;;;;;0.00;0.00;;;1.30;99.90;;;;;;5013477;28;20230;-70
2023/01/18 05:58:06;;;;;;;0.00;0.00;;;1.20;99.90;;;;;;5013714;28;20538;-70
2023/01/18 06:00:33;;;;;;;0.00;0.00;;;1.20;99.90;;;;;;5012275;28;20269;-70
2023/01/18 06:02:59;;;;;;;0.10;0.10;;;1.20;99.90;;;;;;5013403;28;20186;-70
2023/01/18 06:05:25;;;;;;;0.00;0.00;;;1.10;99.90;;;;;;5013523;28;20217;-70
2023/01/18 06:07:51;;;;;;;0.77;0.77;;;1.00;99.90;;;;;;5013538;28;20206;-69
2023/01/18 06:10:17;;;;;;;0.00;0.00;;;1.00;99.90;;;;;;5013372;28;20658;-70
2023/01/18 06:12:44;;;;;;;0.00;0.00;;;0.90;99.90;;;;;;5013593;28;20191;-69
2023/01/18 06:15:10;;;;;;;0.00;0.00;;;0.90;99.90;;;;;;5013604;28;20183;-70
2023/01/18 06:17:36;;;;;;;0.00;0.00;;;0.90;99.90;;;;;;5012587;28;20178;-70
2023/01/18 06:20:03;;;;;;;0.00;0.00;;;0.80;99.90;;;;;;5012748;28;20237;-70
2023/01/18 06:22:29;;;;;;;0.00;0.00;;;0.90;99.90;;;;;;5013283;28;20175;-69
2023/01/18 06:24:54;;;;;;;0.00;0.00;;;0.80;99.90;;;;;;5013309;28;20183;-69
2023/01/18 06:27:20;;;;;;;0.00;0.00;;;0.80;99.90;;;;;;5013216;28;20213;-69
2023/01/18 06:29:45;;;;;;;0.00;0.00;;;0.80;99.90;;;;;;5013125;28;20660;-70
2023/01/18 06:32:11;;;;;;;0.00;0.00;;;0.70;99.90;;;;;;5012370;28;20214;-69
2023/01/18 06:34:36;;;;;;;0.10;0.10;;;0.70;99.90;;;;;;5012541;28;20179;-69
2023/01/18 06:37:03;;;;;;;0.00;0.00;;;0.70;99.90;;;;;;5012895;28;20183;-69
2023/01/18 06:39:28;;;;;;;0.00;0.00;;;0.70;99.90;;;;;;5012930;28;20224;-69
2023/01/18 06:41:54;;;;;;;0.00;0.00;;;0.70;99.90;;;;;;5012921;28;20254;-69
2023/01/18 06:44:20;;;;;;;0.00;0.00;;;0.70;99.90;;;;;;5012935;28;20254;-69
2023/01/18 06:46:46;;;;;;;0.03;0.03;;;0.70;99.90;;;;;;5012936;28;20308;-69
2023/01/18 06:49:12;;;;;;;0.00;0.00;;;0.70;99.90;;;;;;5013023;28;20642;-69
2023/01/18 06:51:38;;;;;;;0.00;0.00;;;0.60;99.90;;;;;;5012593;28;20223;-69
2023/01/18 06:54:04;;;;;;;0.10;0.10;;;0.60;99.90;;;;;;5012851;28;20222;-69
2023/01/18 06:56:29;;;;;;;0.00;0.00;;;0.60;99.90;;;;;;4995208;28;20182;-69
2023/01/18 06:58:57;;;;;;;0.00;0.00;;;0.60;99.90;;;;;;5005345;28;20184;-69
2023/01/18 07:01:24;;;;;;;0.00;0.00;;;0.60;99.90;;;;;;4993076;28;20181;-69
2023/01/18 07:03:50;;;;;;;0.30;0.30;;;0.60;99.90;;;;;;4992987;28;20179;-69
2023/01/18 07:06:16;;;;;;;0.00;0.00;;;0.50;99.90;;;;;;4992890;28;20253;-70
2023/01/18 07:08:42;;;;;;;0.20;0.20;;;0.50;99.90;;;;;;4992912;28;20184;-70
2023/01/18 07:11:10;;;;;;;0.60;0.60;;;0.50;99.90;;;;;;4992840;28;20269;-70
2023/01/18 07:13:42;;;;;;;0.00;0.00;;;0.50;99.90;;;;;;4992650;28;20176;-71
2023/01/18 07:16:16;;;;;;;0.00;0.00;;;0.50;99.90;;;;;;4960210;28;20183;-71
2023/01/18 07:18:47;;;;;;;0.87;0.87;;;0.50;99.90;;;;;;4992849;28;20229;-70
2023/01/18 07:21:13;;;;;;;0.00;0.00;;;0.50;99.90;;;;;;4992824;28;20270;-68
2023/01/18 07:23:40;;;;;;;0.00;0.00;;;0.50;99.90;;;;;;4992641;28;20183;-69
2023/01/18 07:26:24;;;;;;;0.23;0.23;;;0.40;99.90;;;;;;4992684;28;20254;-69
2023/01/18 07:28:50;;;;;;;0.20;0.20;;;0.40;99.90;;;;;;4992933;28;20176;-69
2023/01/18 07:31:17;;;;;;;0.10;0.10;;;0.40;99.90;;;;;;4992644;28;20302;-69
2023/01/18 07:33:43;;;;;;;0.00;0.00;;;0.40;99.90;;;;;;4992649;28;20180;-69
2023/01/18 07:36:09;;;;;;;0.00;0.00;;;0.40;99.90;;;;;;4992639;28;20175;-69
2023/01/18 07:38:37;;;;;;;0.00;0.00;;;0.40;99.90;;;;;;4992517;28;20588;-69
2023/01/18 07:41:13;;;;;;;0.03;0.03;;;0.40;99.90;;;;;;4992647;28;20179;-69
2023/01/18 07:43:39;;;;;;;0.00;0.00;;;0.40;99.90;;;;;;4981201;28;20187;-69
2023/01/18 07:46:06;;;;;;;0.00;0.00;;;0.40;99.90;;;;;;5012191;28;20250;-69
2023/01/18 07:48:33;;;;;;;0.00;0.00;;;0.40;99.90;;;;;;5011911;28;20187;-69
2023/01/18 07:51:00;;;;;;;0.00;0.00;;;0.40;99.90;;;;;;5012024;28;20241;-69
2023/01/18 07:53:27;;;;;;;0.10;0.10;;;0.50;99.90;;;;;;5011802;28;20191;-69
2023/01/18 07:55:53;;;;;;;0.00;0.00;;;0.50;99.90;;;;;;5011939;28;20190;-69
2023/01/18 07:58:20;;;;;;;0.00;0.00;;;0.50;99.90;;;;;;5012008;28;20183;-69
2023/01/18 08:00:46;;;;;;;0.00;0.00;;;0.50;99.90;;;;;;5011912;28;20544;-69
2023/01/18 08:03:13;;;;;;;0.00;0.00;;;0.50;99.90;;;;;;5011884;28;20175;-69
2023/01/18 08:05:41;;;;;;;0.00;0.00;;;0.60;99.90;;;;;;5011780;28;20599;-69
2023/01/18 08:08:09;;;;;;;0.00;0.00;;;0.50;99.90;;;;;;5011959;28;20602;-69
2023/01/18 08:10:35;;;;;;;0.00;0.00;;;0.60;99.90;;;;;;5011628;28;20175;-69
2023/01/18 08:13:00;;;;;;;0.00;0.00;;;0.60;99.90;;;;;;5011873;28;20538;-69
2023/01/18 08:15:26;;;;;;;0.10;0.10;;;0.60;99.90;;;;;;5011768;28;20183;-69
2023/01/18 08:17:54;;;;;;;0.00;0.00;;;0.60;99.90;;;;;;4994283;28;20175;-69
2023/01/18 08:20:20;;;;;;;0.00;0.00;;;0.60;99.90;;;;;;5011810;28;20179;-69
2023/01/18 08:22:46;;;;;;;0.00;0.00;;;0.70;99.90;;;;;;5011760;28;20277;-69
2023/01/18 08:25:12;;;;;;;0.00;0.00;;;0.70;99.90;;;;;;5011750;28;21017;-69
2023/01/18 08:27:37;;;;;;;0.20;0.20;;;0.70;99.90;;;;;;5011719;28;20214;-69
2023/01/18 08:30:05;;;;;;;0.00;0.00;;;0.80;99.90;;;;;;4994307;28;20186;-70
2023/01/18 08:32:31;;;;;;;0.63;0.30;;;0.80;99.90;;;;;;5011465;28;20218;-69
2023/01/18 08:34:56;;;;;;;0.00;0.00;;;0.70;99.90;;;;;;5011614;28;20236;-70
2023/01/18 08:37:22;;;;;;;0.00;0.00;;;0.70;99.90;;;;;;5011599;28;20190;-69
2023/01/18 08:39:48;;;;;;;0.13;0.13;;;0.70;99.90;;;;;;5011782;28;20251;-69
2023/01/18 08:42:14;;;;;;;0.13;0.13;;;0.80;99.90;;;;;;5011489;28;20191;-69
2023/01/18 08:44:40;;;;;;;0.00;0.00;;;0.70;99.90;;;;;;5011434;28;20167;-69
2023/01/18 08:47:06;;;;;;;0.00;0.00;;;0.80;99.90;;;;;;5011650;28;20174;-70
2023/01/18 08:49:31;;;;;;;0.03;0.03;;;0.80;99.90;;;;;;5011518;28;20658;-69
2023/01/18 08:51:57;;;;;;;0.00;0.00;;;0.90;99.90;;;;;;5011415;28;20215;-69
2023/01/18 08:54:23;;;;;;;0.00;0.00;;;0.90;99.90;;;;;;5011300;28;20225;-69
2023/01/18 08:56:50;;;;;;;0.00;0.00;;;1.00;99.90;;;;;;5014528;28;20198;-69
2023/01/18 08:59:15;;;;;;;0.00;0.00;;;1.10;99.90;;;;;;5014819;28;20187;-70
2023/01/18 09:01:41;;;;;;;0.00;0.00;;;1.20;99.90;;;;;;5014989;28;20550;-70
2023/01/18 09:04:07;;;;;;;0.00;0.00;;;1.20;99.90;;;;;;5014988;28;20559;-70
2023/01/18 09:06:33;;;;;;;0.00;0.00;;;1.30;99.90;;;;;;5014671;28;20452;-70
2023/01/18 09:09:00;;;;;;;0.00;0.00;;;1.30;99.90;;;;;;4997427;28;20654;-70
2023/01/18 09:11:25;;;;;;;0.00;0.00;;;1.30;99.90;;;;;;5014673;28;20203;-69
2023/01/18 09:13:55;;;;;;;0.17;0.17;;;1.20;99.90;;;;;;5014849;28;20185;-69
2023/01/18 09:16:21;;;;;;;0.00;0.00;;;1.30;99.90;;;;;;5014705;28;20534;-71
2023/01/18 09:18:48;;;;;;;0.05;0.05;;;1.20;99.90;;;;;;5014712;28;20175;-70
2023/01/18 09:21:16;;;;;;;0.00;0.00;;;1.20;99.90;;;;;;5014594;28;20321;-71
2023/01/18 09:23:42;;;;;;;0.00;0.00;;;1.20;99.90;;;;;;5014649;28;20217;-71
2023/01/18 09:26:15;;;;;;;1.13;0.50;;;1.30;99.90;;;;;;4997125;28;20179;-71
2023/01/18 09:28:43;;;;;;;0.00;0.00;;;1.20;99.90;;;;;;5014536;28;20171;-71
2023/01/18 09:31:09;;;;;;;0.43;0.20;;;1.30;99.90;;;;;;5014564;28;20288;-71
2023/01/18 09:33:36;;;;;;;0.20;0.20;;;1.20;99.90;;;;;;5014275;28;20645;-71
2023/01/18 09:36:04;;;;;;;0.10;0.10;;;1.20;99.90;;;;;;5014451;28;20210;-71
2023/01/18 09:38:30;;;;;;;0.00;0.00;;;1.10;99.90;;;;;;5014238;28;20645;-71
2023/01/18 09:40:57;;;;;;;0.13;0.13;;;1.20;99.90;;;;;;5014218;28;20258;-71
2023/01/18 09:43:41;;;;;;;0.00;0.00;;;1.10;99.90;;;;;;5014139;28;20186;-70
2023/01/18 09:46:27;;;;;;;0.00;0.00;;;1.10;99.90;;;;;;5014326;28;20210;-71
2023/01/18 09:48:59;;;;;;;0.10;0.10;;;1.10;99.90;;;;;;5013630;28;20191;-70
2023/01/18 09:51:31;;;;;;;0.27;0.27;;;1.20;99.90;;;;;;5014013;28;20210;-70
2023/01/18 09:54:04;;;;;;;1.27;0.35;;;1.20;99.90;;;;;;5013888;28;20202;-69
2023/01/18 09:56:39;;;;;;;0.00;0.00;;;1.20;99.90;;;;;;5014006;28;20182;-68
2023/01/18 09:59:12;;;;;;;0.00;0.00;;;1.30;99.90;;;;;;5006212;28;20193;-69
2023/01/18 10:01:38;;;;;;;0.10;0.10;;;1.30;99.90;;;;;;4994334;28;20230;-70
2023/01/18 10:04:15;;;;;;;0.20;0.20;;;1.40;99.90;;;;;;4996177;28;20194;-70
2023/01/18 10:06:55;;;;;;;0.00;0.00;;;1.40;99.90;;;;;;5012968;28;20182;-69
2023/01/18 10:09:33;;;;;;;0.00;0.00;;;1.30;99.90;;;;;;5013859;28;20206;-69
2023/01/18 10:12:01;;;;;;;0.10;0.10;;;1.30;99.90;;;;;;5013626;28;20214;-69
2023/01/18 10:14:39;;;;;;;0.00;0.00;;;1.40;99.90;;;;;;5013665;28;20175;-69
2023/01/18 10:17:16;;;;;;;0.15;0.15;;;1.40;99.90;;;;;;5013593;28;20178;-68
2023/01/18 10:19:42;;;;;;;0.20;0.20;;;1.40;99.90;;;;;;5013436;28;20178;-69
2023/01/18 10:22:44;;;;;;;0.00;0.00;;;1.50;99.90;;;;;;5013449;28;20257;-69
2023/01/18 10:25:31;;;;;;;0.00;0.00;;;1.50;99.90;;;;;;4997004;28;20193;-69
2023/01/18 10:28:15;;;;;;;0.00;0.00;;;1.50;99.90;;;;;;5013307;28;20301;-69
2023/01/18 10:31:05;;;;;;;0.00;0.00;;;1.50;99.90;;;;;;5013243;28;20183;-68
2023/01/18 10:33:39;;;;;;;0.00;0.00;;;1.50;99.90;;;;;;5013263;28;20187;-68
2023/01/18 10:36:31;;;;;;;0.00;0.00;;;1.60;99.90;;;;;;4996066;28;20202;-68
2023/01/18 10:39:00;;;;;;;0.00;0.00;;;1.60;99.90;;;;;;5013221;28;20175;-69
2023/01/18 10:41:30;;;;;;;0.00;0.00;;;1.60;99.90;;;;;;4995686;28;20183;-69
2023/01/18 10:43:55;;;;;;;0.00;0.00;;;1.60;99.90;;;;;;5013129;28;20213;-69
2023/01/18 10:46:21;;;;;;;0.00;0.00;;;1.60;99.90;;;;;;5013074;28;20182;-68
2023/01/18 10:48:51;;;;;;;0.00;0.00;;;1.70;99.90;;;;;;5013376;28;20175;-68
2023/01/18 10:51:34;;;;;;;0.05;0.05;;;1.80;99.90;;;;;;5012853;28;20226;-68
2023/01/18 10:54:21;;;;;;;0.00;0.00;;;1.80;99.90;;;;;;5012841;28;20837;-68
2023/01/18 10:56:47;;;;;;;0.00;0.00;;;1.80;99.90;;;;;;5012958;28;20638;-67
2023/01/18 10:59:25;;;;;;;0.10;0.10;;;1.90;99.90;;;;;;5012654;28;20569;-68
2023/01/18 11:01:53;;;;;;;2.60;1.20;;;1.80;99.90;;;;;;5012975;28;20198;-69
2023/01/18 11:04:27;;;;;;;0.00;0.00;;;1.80;99.90;;;;;;5012690;28;20176;-67
2023/01/18 11:06:56;;;;;;;0.10;0.10;;;1.80;99.90;;;;;;5012686;28;20254;-68
2023/01/18 11:09:47;;;;;;;0.00;0.00;;;1.70;99.90;;;;;;5012638;28;20214;-68
2023/01/18 11:12:36;;;;;;;0.03;0.03;;;1.70;99.90;;;;;;5012510;28;20210;-68
2023/01/18 11:15:26;;;;;;;0.00;0.00;;;1.80;99.90;;;;;;5012561;28;20178;-68
2023/01/18 11:18:00;;;;;;;0.00;0.00;;;1.80;99.90;;;;;;5000561;28;20279;-68
2023/01/18 11:20:44;;;;;;;0.00;0.00;;;1.80;99.90;;;;;;5012348;28;20189;-68
2023/01/18 11:23:13;;;;;;;0.00;0.00;;;1.80;99.90;;;;;;5012357;28;20224;-68
2023/01/18 11:25:50;;;;;;;0.00;0.00;;;1.80;99.90;;;;;;5012432;28;20174;-68
2023/01/18 11:28:20;;;;;;;0.00;0.00;;;1.80;99.90;;;;;;5012364;28;20229;-68
2023/01/18 11:30:59;;;;;;;0.00;0.00;;;1.90;99.90;;;;;;5012467;28;20190;-67
2023/01/18 11:33:26;;;;;;;0.00;0.00;;;2.00;99.90;;;;;;5012300;28;20532;-67
2023/01/18 11:35:54;;;;;;;0.47;0.40;;;2.10;99.90;;;;;;5012376;28;20181;-67
2023/01/18 11:38:25;;;;;;;0.00;0.00;;;2.20;99.90;;;;;;5012480;28;20175;-67
2023/01/18 11:41:03;;;;;;;0.00;0.00;;;2.30;99.90;;;;;;5012416;28;20175;-68
2023/01/18 11:43:32;;;;;;;0.00;0.00;;;2.40;99.90;;;;;;5012309;28;20573;-68
2023/01/18 11:46:12;;;;;;;0.00;0.00;;;2.40;99.90;;;;;;5012303;28;20186;-68
2023/01/18 11:48:53;;;;;;;0.20;0.20;;;2.40;99.90;;;;;;5012247;28;20171;-68
2023/01/18 11:51:39;;;;;;;0.00;0.00;;;2.30;99.90;;;;;;5012105;28;20616;-67
2023/01/18 11:54:45;;;;;;;0.00;0.00;;;2.30;99.90;;;;;;5012080;28;20221;-67
2023/01/18 11:57:11;;;;;;;0.00;0.00;;;2.30;99.90;;;;;;5012066;28;20658;-67
2023/01/18 11:59:44;;;;;;;0.00;0.00;;;2.30;99.90;;;;;;5011866;28;20183;-68
2023/01/18 12:02:48;;;;;;;0.10;0.10;;;2.30;99.90;;;;;;5012132;28;20233;-68
2023/01/18 12:05:27;;;;;;;0.22;0.22;;;2.30;99.90;;;;;;5011871;28;20205;-68
2023/01/18 12:08:37;;;;;;;0.00;0.00;;;2.30;99.90;;;;;;5012129;28;20230;-67
2023/01/18 12:11:29;;;;;;;0.00;0.00;;;2.20;99.90;;;;;;4997087;28;20210;-68
2023/01/18 12:14:42;;;;;;;0.00;0.00;;;2.10;99.90;;;;;;5011821;28;20179;-67
2023/01/18 12:17:26;;;;;;;0.00;0.00;;;2.10;99.90;;;;;;4968407;28;20187;-67
2023/01/18 12:20:17;;;;;;;0.38;0.22;;;2.10;99.90;;;;;;5011860;28;20175;-67
2023/01/18 12:23:16;;;;;;;0.25;0.25;;;2.10;99.90;;;;;;5011626;28;20719;-67
2023/01/18 12:26:14;;;;;;;0.15;0.15;;;2.10;99.90;;;;;;5011782;28;20737;-67
2023/01/18 12:28:51;;;;;;;0.00;0.00;;;2.10;99.90;;;;;;5011613;28;20222;-68
2023/01/18 12:31:34;;;;;;;0.00;0.00;;;2.20;99.90;;;;;;4996518;28;20218;-68
2023/01/18 12:34:19;;;;;;;0.00;0.00;;;2.20;99.90;;;;;;5015590;28;20175;-68
2023/01/18 12:37:00;;;;;;;0.10;0.10;;;2.20;99.90;;;;;;5015571;28;20179;-68
2023/01/18 12:39:56;;;;;;;0.00;0.00;;;2.20;99.90;;;;;;5015418;28;20167;-68
2023/01/18 12:43:02;;;;;;;0.05;0.05;;;2.30;99.90;;;;;;5015494;28;20186;-68
2023/01/18 12:45:45;;;;;;;0.20;0.20;;;2.40;99.90;;;;;;4995697;28;20183;-68
2023/01/18 12:48:30;;;;;;;0.00;0.00;;;2.40;99.90;;;;;;4995754;28;20188;-68
2023/01/18 12:50:59;;;;;;;0.00;0.00;;;2.50;99.90;;;;;;4995545;28;20261;-68
2023/01/18 12:53:44;;;;;;;0.00;0.00;;;2.50;99.90;;;;;;4995371;28;20639;-68
2023/01/18 12:56:36;;;;;;;0.00;0.00;;;2.60;99.90;;;;;;4995585;28;20212;-68
2023/01/18 12:59:06;;;;;;;0.00;0.00;;;2.70;99.90;;;;;;5002718;28;20187;-69
2023/01/18 13:01:39;;;;;;;0.00;0.00;;;2.70;99.90;;;;;;5015090;28;20167;-68
2023/01/18 13:04:13;;;;;;;0.10;0.10;;;2.60;99.90;;;;;;5014967;28;20307;-68
2023/01/18 13:06:39;;;;;;;0.65;0.47;;;2.60;99.90;;;;;;5015007;28;20653;-68
2023/01/18 13:09:11;;;;;;;0.00;0.00;;;2.60;99.90;;;;;;5015006;28;20191;-69
2023/01/18 13:11:40;;;;;;;0.00;0.00;;;2.60;99.90;;;;;;5014759;28;20429;-68
2023/01/18 13:14:26;;;;;;;0.30;0.30;;;2.70;99.90;;;;;;5014880;28;20178;-68
2023/01/18 13:17:19;;;;;;;0.00;0.00;;;2.70;99.90;;;;;;5014871;28;20182;-68
2023/01/18 13:19:57;;;;;;;0.00;0.00;;;2.70;99.90;;;;;;5014746;28;20225;-68
2023/01/18 13:22:34;;;;;;;0.00;0.00;;;2.70;99.90;;;;;;5014640;28;20261;-68
2023/01/18 13:25:18;;;;;;;0.00;0.00;;;2.70;99.90;;;;;;5014800;28;20182;-68
2023/01/18 13:28:02;;;;;;;0.00;0.00;;;2.70;99.90;;;;;;5014873;28;20258;-68
2023/01/18 13:30:31;;;;;;;0.00;0.00;;;2.70;99.90;;;;;;5014436;28;20167;-68
2023/01/18 13:32:57;;;;;;;0.10;0.10;;;2.70;99.90;;;;;;5014438;28;20309;-68
2023/01/18 13:35:32;;;;;;;0.10;0.10;;;2.70;99.90;;;;;;5014638;28;20187;-68
2023/01/18 13:38:00;;;;;;;0.00;0.00;;;2.70;99.90;;;;;;5014073;28;20178;-68
2023/01/18 13:41:02;;;;;;;0.00;0.00;;;2.60;99.90;;;;;;5012687;28;20691;-68
2023/01/18 13:43:39;;;;;;;0.00;0.00;;;2.70;99.90;;;;;;4986232;28;20175;-68
2023/01/18 13:46:07;;;;;;;0.00;0.00;;;2.70;99.90;;;;;;5014094;28;20191;-67
2023/01/18 13:48:56;;;;;;;0.00;0.00;;;2.70;99.90;;;;;;5013832;28;20234;-67
2023/01/18 13:51:40;;;;;;;0.00;0.00;;;2.70;99.90;;;;;;5014171;28;20736;-66